Time;durP1;ratioP1;P1;durP2;ratioP2;P2;SDS_P1;SDS_P2;PMS_P1;PMS_P2;Temp;Humidity;BMP_temperature;BMP_pressure;BME280_temperature;BME280_humidity;BME280_pressure;Samples;Min_cycle;Max_cycle;Signal;HPM_P1;HPM_P2
2022/11/10 00:02:20;;;;;;;21.47;12.77;;;9.20;99.90;8.60;99988;;;;588328;244;24055;-79
2022/11/10 00:04:48;;;;;;;20.13;12.30;;;9.30;99.90;8.60;99983;;;;589069;244;24058;-80
2022/11/10 00:07:16;;;;;;;16.13;10.33;;;9.30;99.90;8.60;99984;;;;589484;244;24101;-79
2022/11/10 00:09:45;;;;;;;26.07;12.93;;;9.30;99.90;8.60;99992;;;;588959;244;24067;-79
2022/11/10 00:12:14;;;;;;;18.60;11.40;;;9.30;99.90;8.70;99975;;;;589135;244;24052;-82
2022/11/10 00:17:30;;;;;;;16.97;10.83;;;9.30;99.90;8.70;99987;;;;583085;244;24062;-80
2022/11/10 00:19:58;;;;;;;16.77;11.03;;;9.40;99.90;8.70;99982;;;;579949;244;24068;-81
2022/11/10 00:22:27;;;;;;;18.80;10.37;;;9.40;99.90;8.70;99977;;;;589068;244;24105;-80
2022/11/10 00:24:54;;;;;;;18.47;10.90;;;9.40;99.90;8.70;99987;;;;590313;242;24078;-81
2022/11/10 00:27:22;;;;;;;20.50;10.80;;;9.30;99.90;8.70;99978;;;;590806;243;24064;-80
2022/11/10 00:29:54;;;;;;;15.73;10.27;;;9.30;99.90;8.70;99980;;;;590466;243;24138;-79
2022/11/10 00:32:18;;;;;;;14.03;9.20;;;9.30;99.90;8.70;99971;;;;585073;244;24066;-80
2022/11/10 00:34:49;;;;;;;16.17;10.47;;;9.30;99.90;8.70;99973;;;;589660;244;24133;-80
2022/11/10 00:37:14;;;;;;;18.53;10.33;;;9.40;99.90;8.70;99972;;;;580845;244;24141;-80
2022/11/10 00:39:42;;;;;;;16.37;10.07;;;9.40;99.90;8.70;99984;;;;590149;244;24122;-83
2022/11/10 00:42:10;;;;;;;17.60;8.97;;;9.40;99.90;8.70;99984;;;;589866;244;24100;-79
2022/11/10 00:44:38;;;;;;;15.97;9.20;;;9.40;99.90;8.70;99979;;;;580768;244;24047;-80
2022/11/10 00:47:06;;;;;;;15.23;8.43;;;9.40;99.90;8.70;99984;;;;589805;243;24142;-79
2022/11/10 00:49:34;;;;;;;11.27;8.37;;;9.40;99.90;8.70;99985;;;;589861;243;25104;-79
2022/11/10 00:52:03;;;;;;;12.93;8.43;;;9.40;99.90;8.70;99979;;;;589895;243;25089;-78
2022/11/10 00:54:30;;;;;;;17.53;9.07;;;9.40;99.90;8.80;99983;;;;589897;243;24083;-79
2022/11/10 00:56:58;;;;;;;14.50;8.13;;;9.40;99.90;8.80;99992;;;;589855;243;24049;-79
2022/11/10 00:59:26;;;;;;;14.60;8.77;;;9.40;99.90;8.80;99987;;;;580667;244;24129;-81
2022/11/10 01:01:54;;;;;;;12.37;7.90;;;9.50;99.90;8.80;99991;;;;589486;244;24056;-80
2022/11/10 01:04:22;;;;;;;14.90;8.00;;;9.50;99.90;8.80;99982;;;;580368;244;24067;-81
2022/11/10 01:06:51;;;;;;;13.67;8.10;;;9.50;99.90;8.80;99978;;;;589252;244;24062;-82
2022/11/10 01:09:19;;;;;;;15.40;9.03;;;9.50;99.90;8.90;99983;;;;580025;244;24126;-82
2022/11/10 01:11:47;;;;;;;11.90;7.50;;;9.50;99.90;8.90;99990;;;;588644;244;24156;-79
2022/11/10 01:14:15;;;;;;;13.23;7.80;;;9.60;99.90;8.90;100000;;;;580041;244;24141;-80
2022/11/10 01:16:42;;;;;;;12.10;8.30;;;9.60;99.90;8.90;99999;;;;588545;244;24078;-80
2022/11/10 01:19:10;;;;;;;12.87;8.33;;;9.60;99.90;8.90;99995;;;;588458;244;24134;-81
2022/11/10 01:21:39;;;;;;;10.50;7.00;;;9.60;99.90;8.90;99984;;;;589120;244;24051;-81
2022/11/10 01:24:07;;;;;;;14.60;8.03;;;9.60;99.90;8.90;99994;;;;589517;244;24113;-80
2022/11/10 01:26:35;;;;;;;14.03;7.93;;;9.60;99.90;8.90;99999;;;;580525;244;24053;-81
2022/11/10 01:29:03;;;;;;;11.83;7.27;;;9.60;99.90;9.00;99987;;;;589467;244;24122;-80
2022/11/10 01:31:32;;;;;;;14.00;8.17;;;9.70;99.90;9.00;99991;;;;589404;244;24049;-79
2022/11/10 01:34:00;;;;;;;10.10;7.60;;;9.70;99.90;9.00;99998;;;;589425;244;24063;-83
2022/11/10 01:36:28;;;;;;;10.97;6.77;;;9.70;99.90;9.00;99998;;;;590577;242;24056;-80
2022/11/10 01:38:57;;;;;;;11.03;7.47;;;9.70;99.90;9.00;99989;;;;590471;243;24352;-82
2022/11/10 01:41:29;;;;;;;11.60;7.00;;;9.70;99.90;9.00;99988;;;;581116;244;24083;-79
2022/11/10 01:43:54;;;;;;;10.47;7.10;;;9.70;99.90;9.00;99993;;;;579186;244;24083;-82
2022/11/10 01:46:22;;;;;;;10.87;6.97;;;9.70;99.90;9.00;100000;;;;582283;243;24145;-81
2022/11/10 01:48:54;;;;;;;11.50;8.30;;;9.70;99.90;9.00;100013;;;;589948;243;24090;-81
2022/11/10 01:52:01;;;;;;;11.43;7.03;;;9.70;99.90;9.00;100011;;;;581187;244;24057;-80
2022/11/10 01:54:38;;;;;;;11.97;7.27;;;9.70;99.90;9.00;100016;;;;580826;244;24130;-80
2022/11/10 01:57:06;;;;;;;13.20;7.37;;;9.70;99.90;9.00;100016;;;;580063;244;24067;-80
2022/11/10 01:59:34;;;;;;;11.80;7.60;;;9.70;99.90;9.00;100016;;;;579314;244;24082;-79
2022/11/10 02:02:02;;;;;;;11.77;6.90;;;9.70;99.90;9.00;100013;;;;579492;244;24122;-80
2022/11/10 02:04:30;;;;;;;11.53;6.93;;;9.70;99.90;9.00;100015;;;;578254;244;24068;-80
2022/11/10 02:06:59;;;;;;;12.27;6.97;;;9.70;99.90;9.00;100011;;;;579388;244;24093;-79
2022/11/10 02:09:28;;;;;;;10.87;6.83;;;9.70;99.90;9.00;100004;;;;588343;243;24162;-79
2022/11/10 02:11:56;;;;;;;11.12;9.23;;;9.60;99.90;9.00;100003;;;;573822;244;35220;-79
2022/11/10 02:14:27;;;;;;;12.63;7.47;;;9.70;99.90;9.00;100007;;;;587556;244;24119;-79
2022/11/10 02:16:51;;;;;;;12.23;7.93;;;9.70;99.90;9.00;100006;;;;578857;244;24163;-79
2022/11/10 02:19:22;;;;;;;11.20;6.70;;;9.70;99.90;9.00;100003;;;;579139;244;24096;-80
2022/11/10 02:21:53;;;;;;;8.93;6.03;;;9.70;99.90;9.00;100011;;;;582165;244;24058;-79
2022/11/10 02:24:22;;;;;;;8.83;6.70;;;9.70;99.90;9.00;100012;;;;578531;244;25128;-78
2022/11/10 02:26:50;;;;;;;10.90;6.63;;;9.70;99.90;9.00;100014;;;;587935;244;24137;-79
2022/11/10 02:29:18;;;;;;;9.30;6.30;;;9.70;99.90;9.00;100018;;;;579013;244;24097;-79
2022/11/10 02:31:46;;;;;;;11.23;6.57;;;9.70;99.90;9.00;100020;;;;578737;244;24082;-79
2022/11/10 02:34:14;;;;;;;9.43;6.37;;;9.70;99.90;9.00;100016;;;;587704;243;24051;-79
2022/11/10 02:36:45;;;;;;;13.53;7.00;;;9.70;99.90;9.00;100021;;;;578647;244;24138;-80
2022/11/10 02:39:09;;;;;;;11.93;6.47;;;9.70;99.90;9.00;100013;;;;555835;254;25175;-79
2022/11/10 02:41:37;;;;;;;13.63;6.67;;;9.70;99.90;9.00;100022;;;;578613;244;24127;-80
2022/11/10 02:44:05;;;;;;;11.80;6.70;;;9.70;99.90;8.90;100024;;;;587576;244;24099;-79
2022/11/10 02:46:36;;;;;;;10.20;6.20;;;9.70;99.90;8.90;100024;;;;581612;244;24072;-79
2022/11/10 02:49:02;;;;;;;10.63;7.27;;;9.60;99.90;8.90;100028;;;;580050;243;24099;-80
2022/11/10 02:51:30;;;;;;;10.60;6.57;;;9.60;99.90;8.90;100034;;;;579760;244;24060;-79
2022/11/10 02:53:59;;;;;;;9.70;6.87;;;9.60;99.90;8.90;100027;;;;588424;243;24111;-80
2022/11/10 02:56:27;;;;;;;10.83;7.27;;;9.60;99.90;8.90;100037;;;;579556;244;24043;-80
2022/11/10 02:58:55;;;;;;;10.57;6.80;;;9.60;99.90;8.90;100039;;;;579219;244;24073;-80
2022/11/10 03:01:23;;;;;;;9.83;6.30;;;9.60;99.90;8.90;100032;;;;579147;244;24144;-80
2022/11/10 03:03:51;;;;;;;9.43;5.70;;;9.60;99.90;8.90;100042;;;;588253;243;24063;-80
2022/11/10 03:06:19;;;;;;;11.57;6.70;;;9.60;99.90;8.90;100040;;;;566249;249;24122;-79
2022/11/10 03:08:46;;;;;;;8.83;6.03;;;9.60;99.90;8.90;100047;;;;588260;243;24060;-80
2022/11/10 03:11:14;;;;;;;11.13;6.97;;;9.60;99.90;9.00;100033;;;;588002;244;24052;-81
2022/11/10 03:13:42;;;;;;;9.90;5.97;;;9.60;99.90;8.90;100042;;;;579328;244;24063;-81
2022/11/10 03:16:10;;;;;;;7.63;5.90;;;9.60;99.90;9.00;100037;;;;579071;244;24105;-80
2022/11/10 03:18:41;;;;;;;13.87;6.83;;;9.60;99.90;9.00;100046;;;;588031;243;24098;-80
2022/11/10 03:21:09;;;;;;;8.70;6.67;;;9.60;99.90;9.00;100042;;;;587821;244;24068;-80
2022/11/10 03:23:37;;;;;;;10.67;5.70;;;9.70;99.90;9.00;100045;;;;587579;244;25121;-81
2022/11/10 03:26:09;;;;;;;7.60;5.50;;;9.70;99.90;9.00;100045;;;;578920;244;24069;-80
2022/11/10 03:28:33;;;;;;;9.77;5.80;;;9.70;99.90;9.00;100053;;;;587692;244;24083;-80
2022/11/10 03:31:01;;;;;;;11.47;5.93;;;9.70;99.90;9.00;100045;;;;579062;244;24074;-80
2022/11/10 03:33:29;;;;;;;9.63;5.70;;;9.60;99.90;9.00;100052;;;;579149;244;24130;-81
2022/11/10 03:35:57;;;;;;;10.30;5.90;;;9.70;99.90;9.00;100052;;;;579109;244;24068;-80
2022/11/10 03:38:25;;;;;;;6.40;4.80;;;9.70;99.90;9.00;100060;;;;588031;244;24105;-82
2022/11/10 03:40:53;;;;;;;7.00;5.50;;;9.70;99.90;9.00;100055;;;;588085;244;24079;-80
2022/11/10 03:43:21;;;;;;;8.60;5.17;;;9.70;99.90;9.00;100063;;;;587806;244;25145;-80
2022/11/10 03:45:49;;;;;;;6.83;5.13;;;9.70;99.90;9.00;100069;;;;587715;244;24101;-80
2022/11/10 03:48:17;;;;;;;7.33;5.33;;;9.60;99.90;9.00;100066;;;;587515;244;24125;-79
2022/11/10 03:50:46;;;;;;;10.67;5.50;;;9.70;99.90;9.00;100079;;;;579091;244;24117;-79
2022/11/10 03:53:18;;;;;;;7.73;5.27;;;9.70;99.90;9.00;100076;;;;588105;244;24078;-80
2022/11/10 03:55:42;;;;;;;9.70;5.63;;;9.70;99.90;9.00;100068;;;;566128;249;24140;-80
2022/11/10 03:58:10;;;;;;;8.93;5.73;;;9.70;99.90;9.00;100074;;;;588159;243;24052;-80
2022/11/10 04:00:38;;;;;;;8.70;5.00;;;9.70;99.90;9.00;100073;;;;580659;243;24122;-80
2022/11/10 04:03:06;;;;;;;7.47;5.20;;;9.70;99.90;9.00;100074;;;;567275;249;24074;-80
2022/11/10 04:10:50;;;;;;;8.73;5.87;;;9.70;99.90;9.00;100083;;;;583706;244;24166;-82
2022/11/10 04:16:06;;;;;;;12.60;5.67;;;9.60;99.90;9.00;100090;;;;579492;244;24103;-79
2022/11/10 04:18:34;;;;;;;10.77;5.60;;;9.60;99.90;9.00;100094;;;;579704;244;24100;-80
2022/11/10 04:21:02;;;;;;;9.93;5.60;;;9.60;99.90;8.90;100094;;;;588291;243;24066;-80
2022/11/10 04:23:33;;;;;;;10.67;5.90;;;9.60;99.90;9.00;100089;;;;579709;244;24080;-80
2022/11/10 04:28:43;;;;;;;9.10;5.27;;;9.60;99.90;9.00;100102;;;;582727;244;25125;-80
2022/11/10 04:31:14;;;;;;;9.57;5.13;;;9.60;99.90;9.00;100106;;;;566814;249;24091;-81
2022/11/10 04:33:40;;;;;;;7.17;5.00;;;9.60;99.90;9.00;100100;;;;580000;244;24059;-83
2022/11/10 04:36:07;;;;;;;8.17;5.60;;;9.60;99.90;8.90;100102;;;;580496;244;24063;-84
2022/11/10 04:38:35;;;;;;;10.90;5.93;;;9.60;99.90;8.90;100111;;;;589626;244;24096;-80
2022/11/10 04:41:03;;;;;;;6.77;4.63;;;9.60;99.90;8.90;100106;;;;589381;244;24063;-81
2022/11/10 04:43:31;;;;;;;10.97;5.93;;;9.60;99.90;8.90;100107;;;;580516;244;24067;-80
2022/11/10 04:46:01;;;;;;;10.77;5.47;;;9.60;99.90;8.90;100113;;;;589549;244;24051;-80
2022/11/10 04:48:26;;;;;;;6.90;5.87;;;9.60;99.90;8.90;100117;;;;580192;244;24051;-83
2022/11/10 04:50:54;;;;;;;8.00;5.73;;;9.60;99.90;8.90;100115;;;;589092;244;24047;-83
2022/11/10 04:53:24;;;;;;;6.67;4.60;;;9.60;99.90;8.90;100118;;;;580436;244;24050;-85
2022/11/10 04:55:51;;;;;;;9.57;6.30;;;9.50;99.90;8.90;100114;;;;589152;244;24122;-79
2022/11/10 04:58:23;;;;;;;7.83;5.40;;;9.60;99.90;8.90;100112;;;;589223;244;24055;-80
2022/11/10 05:00:47;;;;;;;8.33;5.07;;;9.60;99.90;8.90;100124;;;;579738;244;24111;-82
2022/11/10 05:03:15;;;;;;;6.60;5.03;;;9.50;99.90;8.90;100123;;;;588857;244;24113;-81
2022/11/10 05:05:43;;;;;;;11.10;6.03;;;9.50;99.90;8.90;100113;;;;580004;244;24064;-80
2022/11/10 05:08:13;;;;;;;8.80;5.80;;;9.50;99.90;8.90;100123;;;;588701;244;24093;-80
2022/11/10 05:10:44;;;;;;;11.90;6.37;;;9.50;99.90;8.90;100128;;;;580437;243;24083;-80
2022/11/10 05:13:08;;;;;;;10.90;6.53;;;9.50;99.90;8.90;100123;;;;580660;244;24062;-79
2022/11/10 05:15:38;;;;;;;10.83;6.13;;;9.50;99.90;8.90;100115;;;;589660;243;24055;-81
2022/11/10 05:18:03;;;;;;;7.00;5.17;;;9.50;99.90;8.90;100127;;;;579849;244;24104;-82
2022/11/10 05:20:31;;;;;;;11.00;5.67;;;9.50;99.90;8.80;100124;;;;580046;244;24089;-80
2022/11/10 05:25:46;;;;;;;8.53;5.10;;;9.50;99.90;8.80;100136;;;;579711;244;24083;-80
2022/11/10 05:28:15;;;;;;;9.50;5.07;;;9.50;99.90;8.80;100144;;;;588613;243;24054;-81
2022/11/10 05:30:45;;;;;;;10.10;5.33;;;9.50;99.90;8.80;100146;;;;579476;244;24063;-80
2022/11/10 05:33:12;;;;;;;8.10;5.13;;;9.50;99.90;8.80;100146;;;;579239;244;24096;-79
2022/11/10 05:35:37;;;;;;;9.20;5.00;;;9.50;99.90;8.80;100150;;;;579482;244;24098;-80
2022/11/10 05:38:05;;;;;;;12.67;5.97;;;9.50;99.90;8.80;100151;;;;579669;244;24085;-80
2022/11/10 05:40:37;;;;;;;7.10;5.43;;;9.50;99.90;8.80;100160;;;;579421;244;24048;-79
2022/11/10 05:43:01;;;;;;;9.40;4.83;;;9.40;99.90;8.70;100153;;;;567636;248;24152;-84
2022/11/10 05:45:29;;;;;;;6.67;5.00;;;9.40;99.90;8.70;100163;;;;580788;244;24123;-84
2022/11/10 05:47:57;;;;;;;7.83;5.17;;;9.40;99.90;8.70;100164;;;;580551;244;24051;-83
2022/11/10 05:50:25;;;;;;;8.83;5.33;;;9.40;99.90;8.70;100174;;;;589179;244;24047;-84
2022/11/10 05:52:53;;;;;;;8.93;5.70;;;9.40;99.90;8.70;100178;;;;580298;244;24078;-85
2022/11/10 05:55:21;;;;;;;12.57;5.43;;;9.40;99.90;8.70;100182;;;;583466;244;24106;-84
2022/11/10 05:57:49;;;;;;;8.37;5.07;;;9.30;99.90;8.60;100187;;;;580002;244;24071;-84
2022/11/10 06:00:17;;;;;;;6.93;5.33;;;9.30;99.90;8.60;100197;;;;583431;244;24051;-83
2022/11/10 06:02:44;;;;;;;8.03;5.33;;;9.30;99.90;8.60;100197;;;;583163;244;24089;-83
2022/11/10 06:05:12;;;;;;;6.90;5.03;;;9.30;99.90;8.60;100199;;;;588871;244;24099;-83
2022/11/10 06:07:40;;;;;;;10.17;4.80;;;9.30;99.90;8.60;100198;;;;588588;244;24049;-84
2022/11/10 06:10:08;;;;;;;9.83;5.70;;;9.20;99.90;8.60;100199;;;;588360;244;24048;-84
2022/11/10 06:12:37;;;;;;;9.07;5.03;;;9.20;99.90;8.60;100202;;;;588348;244;24064;-83
2022/11/10 06:15:05;;;;;;;12.23;4.83;;;9.20;99.90;8.50;100201;;;;588084;244;24102;-81
2022/11/10 06:17:33;;;;;;;7.77;5.37;;;9.20;99.90;8.50;100214;;;;577515;244;24075;-83
2022/11/10 06:20:01;;;;;;;9.80;5.53;;;9.20;99.90;8.50;100222;;;;579390;244;24052;-83
2022/11/10 06:22:29;;;;;;;7.47;5.17;;;9.20;99.90;8.50;100235;;;;580308;243;24147;-83
2022/11/10 06:24:57;;;;;;;8.37;4.83;;;9.20;99.90;8.50;100240;;;;589734;243;24056;-81
2022/11/10 06:27:24;;;;;;;9.20;4.97;;;9.20;99.90;8.50;100244;;;;589272;243;24102;-82
2022/11/10 06:29:56;;;;;;;7.37;5.33;;;9.20;99.90;8.50;100257;;;;588822;243;24090;-80
2022/11/10 06:32:23;;;;;;;9.83;5.33;;;9.20;99.90;8.60;100260;;;;579041;244;24068;-80
2022/11/10 06:34:51;;;;;;;9.47;4.50;;;9.20;99.90;8.60;100259;;;;578934;244;24089;-80
2022/11/10 06:37:16;;;;;;;8.13;4.77;;;9.30;99.90;8.60;100266;;;;579088;244;24078;-81
2022/11/10 06:39:45;;;;;;;8.47;4.70;;;9.30;99.90;8.60;100274;;;;588144;243;24059;-81
2022/11/10 06:42:12;;;;;;;12.77;5.80;;;9.30;99.90;8.60;100285;;;;588134;243;24109;-81
2022/11/10 06:44:40;;;;;;;8.30;5.10;;;9.30;99.90;8.70;100284;;;;588111;243;24104;-80
2022/11/10 06:47:12;;;;;;;8.63;5.37;;;9.40;99.90;8.70;100279;;;;588559;243;24057;-80
2022/11/10 06:49:37;;;;;;;7.70;4.77;;;9.30;99.90;8.70;100286;;;;578985;244;24066;-80
2022/11/10 06:52:08;;;;;;;6.20;4.37;;;9.40;99.90;8.70;100285;;;;587970;243;24144;-80
2022/11/10 06:54:32;;;;;;;11.03;4.43;;;9.40;99.90;8.80;100289;;;;578806;244;24095;-81
2022/11/10 06:57:00;;;;;;;11.07;5.03;;;9.50;99.90;8.90;100305;;;;587914;243;24121;-81
2022/11/10 06:59:28;;;;;;;9.57;4.37;;;9.50;99.90;8.90;100297;;;;587818;243;24074;-81
2022/11/10 07:01:56;;;;;;;11.20;4.83;;;9.60;99.90;9.00;100299;;;;578769;244;24060;-80
2022/11/10 07:04:25;;;;;;;10.07;5.20;;;9.80;99.90;9.10;100315;;;;587589;244;24063;-81
2022/11/10 07:06:53;;;;;;;8.37;4.93;;;9.80;99.90;9.20;100306;;;;587862;244;25127;-82
2022/11/10 07:09:21;;;;;;;10.60;5.20;;;9.90;99.90;9.30;100312;;;;587985;244;24064;-81
2022/11/10 07:11:48;;;;;;;6.43;4.87;;;10.00;99.90;9.30;100314;;;;588184;244;24075;-81
2022/11/10 07:14:17;;;;;;;6.07;4.10;;;10.00;99.90;9.40;100313;;;;588193;244;24079;-79
2022/11/10 07:16:44;;;;;;;10.50;5.60;;;10.10;99.90;9.50;100325;;;;588598;244;24067;-80
2022/11/10 07:19:12;;;;;;;7.37;5.00;;;10.10;99.90;9.60;100326;;;;588036;244;24062;-79
2022/11/10 07:21:40;;;;;;;7.23;5.20;;;10.20;99.90;9.60;100326;;;;579552;244;24064;-80
2022/11/10 07:24:08;;;;;;;10.60;4.53;;;10.30;99.90;9.60;100320;;;;588342;244;24079;-85
2022/11/10 07:26:36;;;;;;;8.30;4.80;;;10.30;99.90;9.60;100320;;;;579264;244;24085;-81
2022/11/10 07:29:05;;;;;;;9.67;4.93;;;10.30;99.90;9.70;100321;;;;587756;244;24094;-80
2022/11/10 07:31:32;;;;;;;15.37;5.60;;;10.30;99.90;9.70;100319;;;;587686;244;24060;-81
2022/11/10 07:34:00;;;;;;;9.67;4.50;;;10.40;99.90;9.80;100317;;;;588444;242;24205;-80
2022/11/10 07:36:28;;;;;;;10.87;5.20;;;10.50;99.90;10.00;100333;;;;589056;243;24069;-80
2022/11/10 07:39:00;;;;;;;6.30;4.60;;;10.50;99.90;10.10;100330;;;;588642;243;24059;-80
2022/11/10 07:41:28;;;;;;;7.50;5.23;;;10.70;99.90;10.30;100334;;;;579479;244;24109;-83
2022/11/10 07:43:52;;;;;;;8.60;5.70;;;10.80;99.90;10.40;100336;;;;578868;244;24071;-80
2022/11/10 07:46:20;;;;;;;8.67;4.97;;;11.00;99.90;10.60;100352;;;;588684;243;24086;-81
2022/11/10 07:48:48;;;;;;;8.57;5.17;;;11.20;99.90;10.80;100350;;;;588371;243;24047;-81
2022/11/10 07:51:17;;;;;;;5.30;4.63;;;11.60;99.90;11.00;100350;;;;588317;243;24062;-82
2022/11/10 07:53:45;;;;;;;8.97;5.10;;;11.60;99.90;11.20;100362;;;;588336;243;24064;-79
2022/11/10 07:56:13;;;;;;;7.80;5.13;;;11.80;99.90;11.40;100359;;;;588183;243;24092;-83
2022/11/10 07:58:40;;;;;;;9.97;5.87;;;12.00;99.90;11.60;100360;;;;588091;244;24057;-81
2022/11/10 08:01:08;;;;;;;5.63;4.90;;;12.20;99.90;11.80;100363;;;;587948;243;24049;-80
2022/11/10 08:03:36;;;;;;;6.83;4.47;;;12.40;99.90;12.00;100370;;;;587741;244;24109;-82
2022/11/10 08:06:04;;;;;;;7.67;5.17;;;12.60;99.90;12.10;100376;;;;588038;243;24140;-82
2022/11/10 08:08:32;;;;;;;6.83;4.70;;;12.70;99.90;12.40;100380;;;;578908;244;24062;-83
2022/11/10 08:11:01;;;;;;;6.63;5.03;;;13.20;99.90;12.60;100378;;;;587800;243;24148;-83
2022/11/10 08:13:29;;;;;;;9.70;4.47;;;13.40;99.90;12.80;100384;;;;587592;244;25106;-83
2022/11/10 08:15:58;;;;;;;6.97;4.70;;;13.40;99.90;12.90;100392;;;;588011;244;24211;-82
2022/11/10 08:18:25;;;;;;;10.20;4.53;;;13.50;99.90;13.10;100403;;;;578699;244;24085;-82
2022/11/10 08:20:53;;;;;;;9.20;4.73;;;13.70;99.90;13.30;100400;;;;587754;244;24101;-85
2022/11/10 08:23:21;;;;;;;6.17;4.20;;;13.90;99.90;13.60;100401;;;;578831;244;24078;-84
2022/11/10 08:25:52;;;;;;;6.80;4.37;;;14.10;99.90;13.80;100404;;;;578824;244;24126;-83
2022/11/10 08:28:20;;;;;;;7.23;4.73;;;14.40;99.90;13.80;100416;;;;587727;244;24143;-82
2022/11/10 08:30:49;;;;;;;3.90;3.60;;;14.50;99.90;13.90;100404;;;;578800;244;24093;-83
2022/11/10 08:33:13;;;;;;;8.07;4.33;;;14.50;99.90;14.10;100418;;;;578864;244;24123;-83
2022/11/10 08:35:44;;;;;;;5.70;4.50;;;14.60;99.90;14.20;100417;;;;574164;244;36260;-82
2022/11/10 08:38:08;;;;;;;7.22;4.43;;;14.80;99.90;14.20;100417;;;;569987;244;46061;-82
2022/11/10 08:40:39;;;;;;;5.73;4.07;;;14.80;99.90;14.10;100429;;;;579166;244;24070;-81
2022/11/10 08:43:08;;;;;;;6.67;4.30;;;14.80;99.90;14.10;100434;;;;578853;244;24118;-79
2022/11/10 08:45:36;;;;;;;4.17;3.77;;;14.70;99.90;14.10;100437;;;;579954;243;24054;-82
2022/11/10 08:48:04;;;;;;;7.20;4.00;;;14.70;99.90;14.00;100444;;;;589340;243;24140;-82
2022/11/10 08:50:32;;;;;;;12.43;4.17;;;14.70;99.90;13.90;100446;;;;589076;243;24062;-80
2022/11/10 08:53:03;;;;;;;3.53;3.23;;;14.60;99.90;13.70;100447;;;;580106;244;24067;-81
2022/11/10 08:55:31;;;;;;;6.47;3.60;;;14.40;99.90;13.60;100447;;;;579390;244;28371;-81
2022/11/10 08:58:02;;;;;;;7.17;3.27;;;14.30;99.90;13.40;100449;;;;589076;243;24059;-82
2022/11/10 09:00:30;;;;;;;7.63;3.30;;;14.10;99.90;13.30;100449;;;;583927;244;24062;-82
2022/11/10 09:03:12;;;;;;;5.07;3.30;;;13.90;99.90;13.20;100446;;;;579648;244;24102;-83
2022/11/10 09:05:37;;;;;;;4.50;3.47;;;13.90;99.90;13.20;100450;;;;579329;244;24060;-84
2022/11/10 09:08:08;;;;;;;5.50;3.23;;;13.80;99.90;13.30;100452;;;;588439;243;24093;-82
2022/11/10 09:10:33;;;;;;;3.93;3.50;;;13.90;99.90;13.50;100462;;;;579465;244;24044;-83
2022/11/10 09:13:04;;;;;;;3.80;3.10;;;14.00;99.90;13.80;100463;;;;579206;244;24064;-86
2022/11/10 09:15:29;;;;;;;4.83;2.83;;;14.30;99.90;14.20;100474;;;;579135;244;24048;-82
2022/11/10 09:18:02;;;;;;;7.93;3.00;;;14.60;99.90;14.30;100470;;;;579702;244;24064;-81
2022/11/10 09:20:34;;;;;;;2.90;2.70;;;15.10;99.90;14.60;100476;;;;579665;244;24047;-82
2022/11/10 09:23:05;;;;;;;3.67;3.20;;;15.00;99.90;15.20;100483;;;;579119;244;24109;-81
2022/11/10 09:25:36;;;;;;;3.53;3.17;;;15.50;99.90;15.40;100488;;;;587940;244;24080;-81
2022/11/10 09:28:01;;;;;;;6.07;3.37;;;15.80;99.90;15.30;100488;;;;578727;244;24102;-81
2022/11/10 09:30:29;;;;;;;4.63;2.87;;;15.90;99.90;15.10;100500;;;;588162;244;24049;-82
2022/11/10 09:32:57;;;;;;;7.27;3.30;;;15.70;99.90;14.80;100487;;;;579184;244;24102;-80
2022/11/10 09:35:29;;;;;;;6.67;3.80;;;15.10;99.90;14.40;100491;;;;579074;244;24058;-84
2022/11/10 09:37:53;;;;;;;3.07;2.77;;;15.10;99.90;14.10;100511;;;;578850;244;24104;-83
2022/11/10 09:40:33;;;;;;;4.53;3.00;;;14.80;99.90;13.80;100500;;;;588095;244;24046;-83
2022/11/10 09:43:01;;;;;;;6.90;3.10;;;14.50;99.90;13.50;100509;;;;579239;244;24097;-81
2022/11/10 09:45:32;;;;;;;7.57;2.73;;;14.20;99.90;13.30;100507;;;;579200;244;24139;-85
2022/11/10 09:48:06;;;;;;;3.50;2.70;;;13.80;99.90;13.20;100507;;;;579044;244;24072;-82
2022/11/10 09:50:46;;;;;;;3.33;2.43;;;13.80;99.90;13.30;100513;;;;579172;244;24196;-84
2022/11/10 09:53:41;;;;;;;2.50;2.30;;;13.80;99.90;13.30;100512;;;;579175;244;24065;-84
2022/11/10 09:56:09;;;;;;;3.70;2.60;;;13.90;99.90;13.30;100517;;;;575347;244;24077;-83
2022/11/10 09:58:40;;;;;;;4.03;2.30;;;13.90;99.90;13.40;100519;;;;580361;243;24110;-81
2022/11/10 10:01:45;;;;;;;9.20;2.20;;;13.90;99.90;13.40;100529;;;;579629;244;24053;-83
2022/11/10 10:04:31;;;;;;;5.10;2.07;;;13.90;99.90;13.30;100527;;;;579482;244;24060;-81
2022/11/10 10:06:58;;;;;;;2.20;2.00;;;13.90;99.90;13.10;100539;;;;579186;244;24048;-80
2022/11/10 10:10:03;;;;;;;3.97;1.87;;;13.70;99.90;12.90;100544;;;;578805;244;24065;-81
2022/11/10 10:12:52;;;;;;;5.70;2.43;;;13.60;99.90;12.70;100552;;;;570426;244;24047;-82
2022/11/10 10:15:28;;;;;;;2.67;2.20;;;13.40;99.90;12.60;100556;;;;578758;244;25156;-81
2022/11/10 10:18:23;;;;;;;3.72;2.30;;;13.20;99.90;12.50;100559;;;;573402;244;46009;-85
2022/11/10 10:21:25;;;;;;;4.03;2.70;;;13.10;99.90;12.50;100564;;;;579690;244;24075;-83
2022/11/10 10:23:52;;;;;;;2.93;1.97;;;13.00;99.90;12.40;100567;;;;580297;244;24066;-83
2022/11/10 10:26:29;;;;;;;2.10;1.90;;;13.00;99.90;12.40;100570;;;;578951;244;24070;-83
2022/11/10 10:28:57;;;;;;;2.23;1.83;;;13.00;99.90;12.40;100568;;;;566416;249;24098;-79
2022/11/10 10:31:26;;;;;;;1.97;1.87;;;13.00;99.90;12.40;100566;;;;579093;244;24094;-81
2022/11/10 10:33:53;;;;;;;2.87;2.07;;;13.00;99.90;12.40;100560;;;;579051;244;24052;-81
2022/11/10 10:36:25;;;;;;;2.20;1.87;;;13.00;99.90;12.40;100557;;;;579300;244;24126;-81
2022/11/10 10:38:53;;;;;;;2.03;1.83;;;13.00;99.90;12.50;100556;;;;588134;244;24041;-80
2022/11/10 10:41:24;;;;;;;2.60;1.73;;;13.10;99.90;12.70;100564;;;;578565;244;24080;-80
2022/11/10 10:43:54;;;;;;;2.23;1.37;;;13.30;99.90;12.90;100568;;;;578013;244;24071;-81
2022/11/10 10:46:30;;;;;;;3.17;1.90;;;13.50;99.90;13.00;100574;;;;579098;244;24054;-80
2022/11/10 10:49:13;;;;;;;2.97;1.63;;;13.70;99.90;13.00;100576;;;;579111;244;24115;-83
2022/11/10 10:51:43;;;;;;;1.30;1.20;;;13.60;99.90;13.10;100587;;;;570683;247;24099;-82
2022/11/10 10:54:26;;;;;;;3.97;1.90;;;13.70;99.90;13.20;100574;;;;578944;244;24133;-83
2022/11/10 10:57:08;;;;;;;2.23;1.50;;;13.80;99.90;13.20;100577;;;;578991;244;24130;-82
2022/11/10 10:59:37;;;;;;;3.30;1.00;;;13.80;99.90;13.20;100593;;;;582729;244;24068;-80
2022/11/10 11:02:20;;;;;;;3.33;1.17;;;13.80;99.90;13.10;100599;;;;588794;244;24051;-84
2022/11/10 11:04:48;;;;;;;5.90;1.50;;;13.80;99.90;13.00;100597;;;;579471;244;24094;-79
2022/11/10 11:07:19;;;;;;;1.53;1.13;;;13.70;99.90;12.90;100599;;;;588186;244;24044;-82
2022/11/10 11:09:47;;;;;;;2.30;1.60;;;13.60;99.90;12.80;100604;;;;580444;243;24050;-80
2022/11/10 11:12:22;;;;;;;1.67;1.50;;;13.40;99.90;12.70;100609;;;;580168;244;24060;-83
2022/11/10 11:14:45;;;;;;;2.83;1.40;;;13.40;99.90;12.60;100609;;;;579367;244;24048;-80
2022/11/10 11:17:20;;;;;;;3.03;1.40;;;13.30;99.90;12.60;100619;;;;579468;244;24150;-82
2022/11/10 11:19:50;;;;;;;1.90;1.50;;;13.30;99.90;12.60;100611;;;;579531;244;24041;-83
2022/11/10 11:22:46;;;;;;;3.20;1.57;;;13.20;99.90;12.60;100614;;;;578942;244;24063;-80
2022/11/10 11:25:23;;;;;;;1.47;1.30;;;13.20;99.90;12.60;100613;;;;579430;244;24110;-85
2022/11/10 11:28:16;;;;;;;4.87;1.53;;;13.10;99.90;12.50;100604;;;;579404;244;24106;-82
2022/11/10 11:31:05;;;;;;;1.83;1.63;;;13.10;99.90;12.50;100604;;;;578758;244;24053;-82
2022/11/10 11:33:51;;;;;;;2.90;1.70;;;13.10;99.90;12.40;100608;;;;579488;243;24077;-81
2022/11/10 11:36:58;;;;;;;1.77;1.37;;;13.00;99.90;12.20;100617;;;;579360;244;24079;-81
2022/11/10 11:40:06;;;;;;;4.20;2.17;;;12.90;99.90;12.30;100618;;;;579373;244;24126;-80
2022/11/10 11:43:19;;;;;;;4.73;1.60;;;12.80;99.90;12.40;100631;;;;566540;249;24078;-80
2022/11/10 11:46:14;;;;;;;2.10;1.60;;;12.90;99.90;12.50;100634;;;;558620;252;24175;-81
2022/11/10 11:48:51;;;;;;;2.17;1.80;;;13.00;99.90;12.50;100647;;;;587079;244;24045;-81